createdAt,value
2018-09-29T00:00:37.941Z,7.60
2018-09-29T00:01:38.069Z,7.55
2018-09-29T00:02:37.780Z,7.47
2018-09-29T00:03:37.683Z,7.45
2018-09-29T00:04:37.625Z,7.41
2018-09-29T00:05:37.521Z,7.39
2018-09-29T00:06:37.443Z,7.38
2018-09-29T00:07:37.364Z,7.38
2018-09-29T00:08:37.314Z,7.31
2018-09-29T00:09:37.207Z,7.35
2018-09-29T00:10:37.126Z,7.39
2018-09-29T00:11:37.149Z,7.41
2018-09-29T00:12:36.971Z,7.47
2018-09-29T00:13:36.891Z,7.37
2018-09-29T00:14:36.839Z,7.44
2018-09-29T00:15:36.738Z,7.38
2018-09-29T00:16:36.789Z,7.38
2018-09-29T00:17:36.577Z,7.34
2018-09-29T00:18:36.497Z,7.27
2018-09-29T00:19:36.416Z,7.34
2018-09-29T00:20:36.339Z,7.30
2018-09-29T00:21:36.260Z,7.16
2018-09-29T00:22:36.480Z,7.16
2018-09-29T00:23:36.102Z,7.21
2018-09-29T00:24:36.024Z,7.16
2018-09-29T00:25:35.944Z,7.24
2018-09-29T00:26:35.864Z,7.20
2018-09-29T00:27:35.786Z,7.16
2018-09-29T00:28:35.757Z,7.21
2018-09-29T00:29:35.628Z,7.24
2018-09-29T00:30:35.552Z,7.20
2018-09-29T00:31:35.470Z,7.19
2018-09-29T00:32:35.418Z,7.19
2018-09-29T00:33:35.516Z,7.19
2018-09-29T00:34:35.237Z,7.13
2018-09-29T00:35:35.357Z,7.13
2018-09-29T00:36:35.076Z,7.30
2018-09-29T00:37:34.998Z,7.20
2018-09-29T00:38:34.991Z,7.30
2018-09-29T00:39:34.868Z,7.41
2018-09-29T00:40:34.758Z,7.37
2018-09-29T00:41:34.680Z,7.45
2018-09-29T00:42:34.600Z,7.45
2018-09-29T00:43:34.546Z,7.45
2018-09-29T00:44:34.472Z,7.44
2018-09-29T00:45:34.364Z,7.39
2018-09-29T00:46:34.311Z,7.47
2018-09-29T00:47:34.231Z,7.35
2018-09-29T00:48:34.153Z,7.44
2018-09-29T00:49:34.050Z,7.41
2018-09-29T00:50:34.301Z,7.45
2018-09-29T00:51:33.892Z,7.37
2018-09-29T00:52:33.811Z,7.31
2018-09-29T00:53:33.733Z,7.37
2018-09-29T00:54:33.653Z,7.37
2018-09-29T00:55:33.805Z,7.19
2018-09-29T00:56:33.522Z,7.31
2018-09-29T00:57:33.444Z,7.17
2018-09-29T00:58:33.336Z,7.26
2018-09-29T00:59:33.691Z,7.12
2018-09-29T01:00:33.512Z,7.17
2018-09-29T01:01:33.102Z,7.13
2018-09-29T01:02:33.022Z,7.16
2018-09-29T01:03:32.945Z,7.16
2018-09-29T01:04:32.894Z,7.17
2018-09-29T01:05:33.712Z,7.13
2018-09-29T01:06:32.908Z,7.19
2018-09-29T01:07:32.656Z,7.12
2018-09-29T01:08:32.551Z,7.08
2018-09-29T01:09:32.469Z,7.11
2018-09-29T01:10:32.390Z,7.05
2018-09-29T01:11:32.587Z,6.87
2018-09-29T01:12:32.232Z,6.93
2018-09-29T01:13:32.487Z,6.88
2018-09-29T01:14:32.074Z,6.78
2018-09-29T01:15:31.995Z,6.81
2018-09-29T01:16:31.943Z,6.72
2018-09-29T01:17:31.838Z,6.75
2018-09-29T01:18:31.758Z,6.84
2018-09-29T01:19:32.011Z,6.76
2018-09-29T01:20:31.801Z,6.76
2018-09-29T01:21:31.550Z,6.75
2018-09-29T01:22:31.517Z,6.65
2018-09-29T01:23:31.589Z,6.66
2018-09-29T01:24:31.283Z,6.52
2018-09-29T01:25:31.205Z,6.51
2018-09-29T01:26:31.124Z,6.57
2018-09-29T01:28:31.091Z,6.44
2018-09-29T01:29:31.117Z,6.39
2018-09-29T01:30:30.810Z,6.45
2018-09-29T01:31:30.757Z,6.41
2018-09-29T01:32:30.674Z,6.39
2018-09-29T01:33:30.799Z,6.33
2018-09-29T01:34:30.489Z,6.34
2018-09-29T01:35:30.410Z,6.33
2018-09-29T01:36:30.662Z,6.32
2018-09-29T01:37:30.251Z,6.41
2018-09-29T01:39:30.518Z,6.41
2018-09-29T01:40:30.037Z,6.41
2018-09-29T01:41:29.960Z,6.36
2018-09-29T01:42:30.293Z,6.30
2018-09-29T01:43:30.001Z,6.11
2018-09-29T01:46:29.612Z,6.04
2018-09-29T01:47:29.786Z,6.13
2018-09-29T01:49:30.236Z,5.92
2018-09-29T01:51:29.164Z,5.86
2018-09-29T01:52:29.056Z,5.95
2018-09-29T01:53:29.311Z,5.89
2018-09-29T01:54:28.897Z,5.85
2018-09-29T01:55:28.841Z,5.89
2018-09-29T01:57:28.685Z,5.75
2018-09-29T01:58:28.804Z,5.71
2018-09-29T01:59:28.525Z,5.65
2018-09-29T02:00:28.922Z,5.67
2018-09-29T02:01:28.669Z,5.60
2018-09-29T02:02:28.284Z,5.53
2018-09-29T02:03:28.203Z,5.50
2018-09-29T02:05:28.649Z,5.50
2018-09-29T02:06:28.238Z,5.44
2018-09-29T02:07:27.885Z,5.49
2018-09-29T02:09:27.721Z,5.47
2018-09-29T02:10:27.615Z,5.41
2018-09-29T02:11:27.573Z,5.35
2018-09-29T02:12:27.456Z,5.34
2018-09-29T02:13:27.708Z,5.26
2018-09-29T02:14:27.523Z,5.28
2018-09-29T02:15:27.243Z,5.29
2018-09-29T02:16:27.135Z,5.26
2018-09-29T02:17:27.054Z,5.21
2018-09-29T02:18:26.973Z,5.11
2018-09-29T02:19:26.894Z,5.06
2018-09-29T02:20:26.813Z,5.05
2018-09-29T02:21:26.733Z,5.05
2018-09-29T02:23:26.849Z,5.11
2018-09-29T02:25:26.443Z,5.05
2018-09-29T02:26:26.359Z,5.05
2018-09-29T02:27:26.476Z,5.06
2018-09-29T02:28:26.245Z,5.06
2018-09-29T02:29:26.119Z,5.05
2018-09-29T02:30:26.008Z,4.95
2018-09-29T02:32:25.847Z,4.96
2018-09-29T02:33:25.804Z,4.88
2018-09-29T02:34:25.689Z,4.95
2018-09-29T02:35:25.637Z,4.95
2018-09-29T02:36:25.524Z,4.91
2018-09-29T02:37:25.444Z,4.87
2018-09-29T02:38:25.590Z,4.92
2018-09-29T02:39:25.310Z,4.96
2018-09-29T02:40:25.230Z,4.95
2018-09-29T02:41:28.573Z,4.95
2018-09-29T02:42:25.069Z,4.91
2018-09-29T02:43:25.189Z,4.95
2018-09-29T02:44:25.106Z,4.83
2018-09-29T02:45:24.826Z,4.85
2018-09-29T02:46:24.741Z,4.87
2018-09-29T02:47:24.663Z,4.84
2018-09-29T02:48:24.585Z,4.73
2018-09-29T02:49:24.504Z,4.79
2018-09-29T02:50:24.418Z,4.80
2018-09-29T02:51:25.222Z,4.91
2018-09-29T02:52:24.565Z,4.80
2018-09-29T02:53:24.226Z,4.72
2018-09-29T02:54:25.011Z,4.66
2018-09-29T02:55:24.016Z,4.69
2018-09-29T02:56:23.934Z,4.61
2018-09-29T02:57:24.362Z,4.64
2018-09-29T02:58:23.775Z,4.61
2018-09-29T02:59:23.795Z,4.61
2018-09-29T03:00:23.612Z,4.68
2018-09-29T03:02:23.448Z,4.58
2018-09-29T03:03:23.571Z,4.64
2018-09-29T03:04:23.491Z,4.59
2018-09-29T03:05:23.211Z,4.65
2018-09-29T03:06:23.124Z,4.52
2018-09-29T03:07:23.046Z,4.50
2018-09-29T03:08:23.168Z,4.56
2018-09-29T03:09:22.882Z,4.52
2018-09-29T03:10:22.801Z,4.58
2018-09-29T03:11:22.770Z,4.55
2018-09-29T03:12:22.840Z,4.55
2018-09-29T03:13:22.556Z,4.50
2018-09-29T03:14:22.474Z,4.52
2018-09-29T03:16:22.315Z,4.43
2018-09-29T03:18:22.275Z,4.44
2018-09-29T03:19:23.077Z,4.28
2018-09-29T03:23:21.743Z,4.38
2018-09-29T03:24:21.664Z,4.41
2018-09-29T03:25:22.296Z,4.36
2018-09-29T03:26:21.508Z,4.47
2018-09-29T03:27:21.899Z,4.43
2018-09-29T03:28:21.546Z,4.43
2018-09-29T03:29:21.260Z,4.25
2018-09-29T03:30:22.135Z,4.34
2018-09-29T03:33:21.851Z,4.20
2018-09-29T03:34:21.258Z,4.18
2018-09-29T03:35:20.975Z,4.15
2018-09-29T03:41:20.438Z,4.29
2018-09-29T03:44:20.319Z,4.36
2018-09-29T03:46:19.875Z,4.32
2018-09-29T03:49:19.835Z,4.26
2018-09-29T03:51:19.878Z,4.16
2018-09-29T03:54:20.599Z,4.22
2018-09-29T03:56:19.542Z,4.15
2018-09-29T03:57:18.989Z,4.12
2018-09-29T04:00:19.397Z,4.18
2018-09-29T04:03:18.800Z,4.29
2018-09-29T04:06:19.009Z,4.16
2018-09-29T04:09:18.409Z,4.12
2018-09-29T04:10:17.928Z,4.18
2018-09-29T04:12:18.012Z,4.16
2018-09-29T04:13:17.984Z,4.16
2018-09-29T04:20:17.260Z,3.83
2018-09-29T04:22:17.559Z,3.84
2018-09-29T04:26:17.781Z,3.72
2018-09-29T04:29:16.378Z,3.92
2018-09-29T04:35:18.913Z,3.80
2018-09-29T04:43:15.946Z,3.92
2018-09-29T04:48:15.230Z,3.97
2018-09-29T04:51:14.982Z,3.86
2018-09-29T04:54:14.330Z,3.84
2018-09-29T04:57:15.954Z,3.83
2018-09-29T05:01:14.169Z,3.75
2018-09-29T05:11:13.147Z,3.80
2018-09-29T05:14:13.099Z,3.61
2018-09-29T05:15:13.219Z,3.62
2018-09-29T05:21:12.537Z,3.59
2018-09-29T05:24:12.530Z,3.57
2018-09-29T05:27:11.909Z,3.54
2018-09-29T05:28:11.550Z,3.57
2018-09-29T05:29:11.673Z,3.59
2018-09-29T05:34:11.208Z,3.50
2018-09-29T05:35:10.977Z,3.46
2018-09-29T05:36:10.893Z,3.48
2018-09-29T05:37:11.218Z,3.48
2018-09-29T05:38:10.931Z,3.51
2018-09-29T05:39:10.650Z,3.56
2018-09-29T05:40:12.132Z,3.47
2018-09-29T05:41:10.481Z,3.54
2018-09-29T05:42:10.606Z,3.57
2018-09-29T05:43:11.000Z,3.57
2018-09-29T05:44:10.236Z,3.51
2018-09-29T05:46:10.226Z,3.56
2018-09-29T05:47:10.190Z,3.61
2018-09-29T05:49:09.826Z,3.61
2018-09-29T05:50:10.456Z,3.61
2018-09-29T05:52:10.030Z,3.66
2018-09-29T05:53:09.907Z,3.75
2018-09-29T05:54:10.096Z,3.69
2018-09-29T05:55:09.533Z,3.71
2018-09-29T05:57:09.773Z,3.71
2018-09-29T05:59:09.611Z,3.79
2018-09-29T06:00:09.197Z,3.77
2018-09-29T06:01:08.840Z,3.74
2018-09-29T06:02:08.758Z,3.77
2018-09-29T06:05:08.864Z,3.83
2018-09-29T06:08:08.268Z,3.94
2018-09-29T06:10:08.305Z,4.00
2018-09-29T06:12:08.387Z,4.04
2018-09-29T06:17:07.529Z,4.08
2018-09-29T06:19:08.681Z,4.20
2018-09-29T06:21:07.200Z,4.11
2018-09-29T06:22:07.523Z,4.18
2018-09-29T06:23:10.271Z,4.11
2018-09-29T06:30:06.459Z,4.34
2018-09-29T06:32:07.367Z,4.34
2018-09-29T06:33:06.424Z,4.43
2018-09-29T06:34:06.383Z,4.46
2018-09-29T06:35:06.255Z,4.47
2018-09-29T06:36:06.885Z,4.52
2018-09-29T06:41:06.277Z,4.62
2018-09-29T06:42:05.492Z,4.69
2018-09-29T07:06:03.956Z,5.83
2018-09-29T07:08:03.668Z,5.86
2018-09-29T07:09:03.313Z,5.92
2018-09-29T07:49:00.207Z,9.53
2018-09-29T08:05:59.532Z,10.49
2018-09-29T08:14:58.951Z,10.92
2018-09-29T08:17:57.903Z,10.96
2018-09-29T08:18:57.830Z,11.06
2018-09-29T08:19:57.727Z,11.00
2018-09-29T08:20:57.649Z,11.00
2018-09-29T08:21:57.602Z,10.98
2018-09-29T08:22:57.523Z,10.96
2018-09-29T08:23:57.473Z,11.03
2018-09-29T08:24:57.574Z,11.00
2018-09-29T08:25:57.296Z,11.08
2018-09-29T08:27:57.138Z,11.32
2018-09-29T08:28:57.039Z,11.34
2018-09-29T08:29:56.959Z,11.29
2018-09-29T08:30:56.883Z,11.42
2018-09-29T08:31:57.041Z,11.53
2018-09-29T08:32:56.760Z,11.59
2018-09-29T08:33:56.679Z,11.71
2018-09-29T08:36:56.653Z,11.59
2018-09-29T08:37:56.358Z,11.57
2018-09-29T08:40:56.121Z,11.75
2018-09-29T08:41:56.044Z,11.86
2018-09-29T08:42:56.019Z,11.83
2018-09-29T08:43:55.916Z,11.87
2018-09-29T08:44:55.816Z,11.86
2018-09-29T08:45:55.740Z,11.72
2018-09-29T08:46:55.667Z,11.72
2018-09-29T08:47:55.588Z,11.79
2018-09-29T08:48:55.513Z,11.78
2018-09-29T08:49:55.435Z,11.75
2018-09-29T08:50:55.591Z,11.81
2018-09-29T08:51:55.287Z,11.93
2018-09-29T08:52:55.234Z,11.98
2018-09-29T08:53:55.132Z,11.97
2018-09-29T08:54:55.234Z,11.98
2018-09-29T08:55:55.718Z,12.00
2018-09-29T08:58:55.287Z,11.94
2018-09-29T09:00:54.777Z,12.02
2018-09-29T09:01:54.954Z,11.95
2018-09-29T09:02:54.678Z,12.06
2018-09-29T09:03:54.409Z,12.12
2018-09-29T09:04:54.525Z,12.12
2018-09-29T09:05:54.957Z,12.33
2018-09-29T09:06:54.576Z,12.44
2018-09-29T09:07:54.301Z,12.44
2018-09-29T09:08:54.428Z,12.36
2018-09-29T09:10:53.868Z,12.28
2018-09-29T09:12:53.718Z,12.28
2018-09-29T09:13:53.842Z,12.42
2018-09-29T09:14:53.769Z,12.42
2018-09-29T09:15:53.491Z,12.48
2018-09-29T09:17:53.339Z,12.48
2018-09-29T09:18:53.288Z,12.46
2018-09-29T09:19:53.162Z,12.49
2018-09-29T09:20:53.113Z,12.49
2018-09-29T09:21:53.344Z,12.52
2018-09-29T09:22:53.038Z,12.52
2018-09-29T09:23:52.934Z,12.52
2018-09-29T09:24:52.813Z,12.71
2018-09-29T09:26:52.864Z,12.99
2018-09-29T09:28:52.512Z,12.99
2018-09-29T09:29:52.421Z,12.81
2018-09-29T09:30:52.366Z,12.84
2018-09-29T09:34:52.060Z,12.71
2018-09-29T09:37:51.886Z,13.09
2018-09-29T09:38:52.162Z,13.11
2018-09-29T09:39:51.993Z,13.11
2018-09-29T09:40:51.585Z,13.04
2018-09-29T09:41:51.511Z,13.04
2018-09-29T09:42:51.435Z,13.15
2018-09-29T09:43:51.359Z,13.18
2018-09-29T09:44:51.287Z,13.21
2018-09-29T09:45:51.209Z,13.32
2018-09-29T09:46:51.140Z,13.48
2018-09-29T09:47:51.063Z,13.44
2018-09-29T09:48:50.985Z,13.48
2018-09-29T09:49:50.962Z,13.66
2018-09-29T09:50:50.838Z,13.65
2018-09-29T09:51:50.759Z,13.65
2018-09-29T09:52:50.685Z,13.63
2018-09-29T09:53:50.610Z,13.61
2018-09-29T09:54:50.635Z,13.50
2018-09-29T09:55:50.499Z,13.65
2018-09-29T09:56:50.389Z,13.63
2018-09-29T09:57:50.312Z,13.62
2018-09-29T09:58:50.238Z,13.65
2018-09-29T09:59:50.163Z,13.68
2018-09-29T10:00:50.089Z,13.65
2018-09-29T10:01:50.014Z,13.63
2018-09-29T10:02:49.937Z,13.66
2018-09-29T10:03:49.868Z,13.68
2018-09-29T10:04:49.794Z,13.70
2018-09-29T10:05:49.715Z,13.70
2018-09-29T10:06:49.641Z,13.65
2018-09-29T10:07:49.569Z,13.62
2018-09-29T10:08:49.492Z,13.53
2018-09-29T10:09:49.416Z,13.58
2018-09-29T10:10:49.343Z,13.58
2018-09-29T10:11:49.267Z,13.61
2018-09-29T10:12:49.193Z,13.70
2018-09-29T10:13:49.120Z,13.59
2018-09-29T10:14:49.042Z,13.65
2018-09-29T10:15:48.968Z,13.71
2018-09-29T10:16:48.897Z,13.71
2018-09-29T10:17:48.819Z,13.76
2018-09-29T10:18:48.743Z,13.68
2018-09-29T10:19:48.669Z,13.76
2018-09-29T10:20:48.594Z,13.80
2018-09-29T10:21:48.519Z,13.81
2018-09-29T10:22:48.443Z,13.98
2018-09-29T10:23:48.371Z,14.01
2018-09-29T10:24:48.295Z,14.05
2018-09-29T10:25:48.221Z,13.91
2018-09-29T10:26:48.145Z,13.95
2018-09-29T10:27:48.110Z,14.14
2018-09-29T10:28:47.999Z,14.24
2018-09-29T10:29:47.921Z,14.23
2018-09-29T10:30:47.848Z,14.35
2018-09-29T10:31:47.785Z,14.38
2018-09-29T10:32:47.701Z,14.56
2018-09-29T10:33:47.625Z,14.61
2018-09-29T10:34:47.551Z,14.49
2018-09-29T10:35:47.477Z,14.39
2018-09-29T10:36:47.404Z,14.27
2018-09-29T10:37:47.328Z,14.09
2018-09-29T10:38:47.254Z,14.03
2018-09-29T10:39:47.182Z,14.13
2018-09-29T10:40:47.108Z,14.28
2018-09-29T10:41:47.085Z,14.38
2018-09-29T10:42:46.959Z,14.47
2018-09-29T10:43:46.884Z,14.78
2018-09-29T10:44:46.810Z,14.68
2018-09-29T10:45:46.737Z,14.64
2018-09-29T10:46:46.662Z,14.57
2018-09-29T10:47:46.590Z,14.64
2018-09-29T10:48:46.516Z,14.57
2018-09-29T10:49:46.443Z,14.54
2018-09-29T10:50:46.368Z,14.56
2018-09-29T10:51:46.295Z,14.46
2018-09-29T10:52:46.277Z,14.49
2018-09-29T10:53:46.147Z,14.50
2018-09-29T10:54:46.074Z,14.68
2018-09-29T10:55:45.999Z,14.71
2018-09-29T10:56:45.928Z,14.79
2018-09-29T10:57:45.856Z,14.91
2018-09-29T10:58:45.779Z,15.10
2018-09-29T10:59:45.705Z,15.08
2018-09-29T11:00:45.875Z,15.42
2018-09-29T11:01:45.559Z,15.70
2018-09-29T11:02:45.558Z,16.12
2018-09-29T11:03:45.413Z,16.26
2018-09-29T11:04:45.346Z,16.82
2018-09-29T11:05:45.269Z,17.29
2018-09-29T11:06:45.245Z,17.95
2018-09-29T11:07:45.127Z,18.19
2018-09-29T11:08:45.055Z,17.87
2018-09-29T11:09:44.982Z,17.64
2018-09-29T11:10:44.911Z,17.63
2018-09-29T11:11:44.841Z,18.16
2018-09-29T11:12:44.770Z,18.21
2018-09-29T11:13:44.701Z,17.96
2018-09-29T11:14:44.630Z,18.21
2018-09-29T11:15:44.560Z,18.29
2018-09-29T11:16:44.491Z,17.88
2018-09-29T11:17:44.420Z,18.18
2018-09-29T11:18:44.351Z,18.68
2018-09-29T11:19:44.282Z,18.82
2018-09-29T11:20:44.255Z,18.34
2018-09-29T11:21:44.143Z,18.07
2018-09-29T11:22:44.076Z,17.63
2018-09-29T11:23:44.004Z,17.51
2018-09-29T11:24:43.936Z,17.82
2018-09-29T11:25:43.866Z,17.92
2018-09-29T11:26:43.795Z,17.96
2018-09-29T11:27:43.736Z,18.24
2018-09-29T11:28:43.659Z,18.16
2018-09-29T11:29:43.588Z,18.59
2018-09-29T11:30:43.519Z,18.57
2018-09-29T11:31:43.450Z,18.64
2018-09-29T11:32:43.382Z,18.98
2018-09-29T11:33:43.312Z,18.79
2018-09-29T11:34:43.245Z,18.64
2018-09-29T11:35:43.177Z,18.67
2018-09-29T11:36:43.106Z,18.90
2018-09-29T11:37:43.038Z,19.43
2018-09-29T11:38:42.971Z,20.00
2018-09-29T11:39:42.902Z,19.65
2018-09-29T11:40:42.833Z,19.25
2018-09-29T11:41:42.766Z,19.42
2018-09-29T11:43:42.679Z,19.42
2018-09-29T11:44:42.576Z,19.76
2018-09-29T11:45:42.493Z,19.75
2018-09-29T11:46:42.433Z,19.48
2018-09-29T11:47:42.358Z,18.86
2018-09-29T11:48:42.292Z,19.11
2018-09-29T11:49:42.226Z,19.88
2018-09-29T11:51:24.648Z,21.08
2018-09-29T11:52:24.582Z,21.08
2018-09-29T11:53:24.518Z,20.68
2018-09-29T11:54:24.499Z,20.84
2018-09-29T11:55:24.381Z,20.72
2018-09-29T11:56:24.316Z,21.19
2018-09-29T11:57:24.250Z,21.81
2018-09-29T11:58:24.184Z,21.20
2018-09-29T11:59:24.119Z,19.69
2018-09-29T12:00:24.053Z,19.73
2018-09-29T12:01:23.991Z,20.57
2018-09-29T12:02:23.923Z,20.46
2018-09-29T12:03:23.856Z,20.38
2018-09-29T12:04:23.792Z,20.43
2018-09-29T12:05:23.726Z,20.84
2018-09-29T12:06:23.700Z,21.53
2018-09-29T12:07:23.603Z,21.69
2018-09-29T12:08:23.530Z,21.89
2018-09-29T12:09:23.467Z,22.50
2018-09-29T12:10:23.401Z,23.05
2018-09-29T12:11:23.336Z,23.05
2018-09-29T12:12:23.275Z,23.27
2018-09-29T12:13:23.209Z,22.04
2018-09-29T12:14:23.191Z,21.85
2018-09-29T12:15:23.131Z,22.19
2018-09-29T12:16:23.017Z,22.12
2018-09-29T12:17:22.953Z,21.84
2018-09-29T12:18:22.890Z,22.13
2018-09-29T12:19:22.825Z,22.49
2018-09-29T12:20:22.766Z,22.50
2018-09-29T12:21:22.705Z,21.51
2018-09-29T12:22:22.714Z,21.76
2018-09-29T12:23:22.574Z,22.16
2018-09-29T12:24:22.510Z,22.67
2018-09-29T12:25:22.447Z,22.49
2018-09-29T12:26:22.383Z,22.26
2018-09-29T12:27:24.920Z,22.37
2018-09-29T12:28:22.259Z,22.30
2018-09-29T12:29:22.253Z,22.26
2018-09-29T12:30:22.132Z,21.95
2018-09-29T12:31:22.070Z,22.49
2018-09-29T12:32:22.009Z,22.39
2018-09-29T12:33:21.946Z,22.17
2018-09-29T12:34:21.882Z,21.60
2018-09-29T12:35:21.820Z,22.17
2018-09-29T12:36:21.757Z,21.76
2018-09-29T12:37:21.818Z,21.69
2018-09-29T12:38:21.633Z,22.05
2018-09-29T12:39:21.570Z,21.92
2018-09-29T12:40:21.507Z,21.17
2018-09-29T12:41:21.445Z,20.54
2018-09-29T12:42:21.381Z,20.83
2018-09-29T12:43:21.317Z,20.98
2018-09-29T12:44:21.309Z,20.99
2018-09-29T12:45:21.193Z,21.06
2018-09-29T12:46:21.129Z,20.27
2018-09-29T12:47:21.066Z,20.64
2018-09-29T12:48:21.002Z,20.57
2018-09-29T12:49:20.938Z,20.71
2018-09-29T12:50:20.875Z,21.27
2018-09-29T12:51:20.818Z,21.30
2018-09-29T12:52:20.747Z,20.57
2018-09-29T12:53:20.683Z,20.66
2018-09-29T12:54:20.619Z,21.45
2018-09-29T12:55:20.559Z,22.15
2018-09-29T12:56:20.492Z,21.89
2018-09-29T12:57:20.431Z,22.19
2018-09-29T12:58:20.365Z,22.20
2018-09-29T12:59:20.325Z,21.86
2018-09-29T13:00:20.237Z,22.01
2018-09-29T13:01:20.174Z,21.79
2018-09-29T13:02:20.112Z,21.49
2018-09-29T13:03:20.047Z,22.01
2018-09-29T13:04:19.983Z,22.65
2018-09-29T13:05:19.997Z,23.15
2018-09-29T13:06:19.856Z,22.56
2018-09-29T13:07:19.796Z,22.63
2018-09-29T13:08:19.732Z,22.28
2018-09-29T13:09:19.671Z,21.14
2018-09-29T13:10:19.604Z,21.60
2018-09-29T13:11:19.541Z,21.38
2018-09-29T13:12:19.479Z,21.27
2018-09-29T13:13:19.417Z,21.66
2018-09-29T13:14:19.352Z,21.70
2018-09-29T13:15:19.289Z,21.41
2018-09-29T13:16:19.225Z,20.42
2018-09-29T13:17:19.163Z,19.55
2018-09-29T13:18:19.096Z,19.28
2018-09-29T13:19:19.033Z,19.64
2018-09-29T13:20:18.969Z,19.53
2018-09-29T13:21:18.905Z,19.42
2018-09-29T13:22:18.843Z,20.00
2018-09-29T13:23:18.772Z,20.61
2018-09-29T13:24:18.708Z,20.86
2018-09-29T13:25:18.644Z,21.35
2018-09-29T13:26:18.577Z,21.51
2018-09-29T13:27:18.515Z,21.74
2018-09-29T13:28:18.446Z,20.99
2018-09-29T13:29:18.382Z,20.72
2018-09-29T13:30:18.320Z,20.89
2018-09-29T13:31:18.251Z,20.38
2018-09-29T13:32:18.186Z,19.97
2018-09-29T13:33:18.120Z,19.63
2018-09-29T13:34:18.054Z,19.50
2018-09-29T13:35:17.991Z,19.14
2018-09-29T13:36:17.923Z,19.27
2018-09-29T13:37:17.858Z,19.71
2018-09-29T13:38:17.798Z,20.08
2018-09-29T13:39:17.723Z,20.12
2018-09-29T13:40:17.657Z,20.27
2018-09-29T13:41:17.591Z,20.33
2018-09-29T13:42:17.525Z,20.40
2018-09-29T13:43:17.460Z,20.56
2018-09-29T13:44:17.390Z,20.72
2018-09-29T13:45:17.329Z,20.87
2018-09-29T13:46:17.256Z,20.98
2018-09-29T13:47:17.188Z,21.14
2018-09-29T13:48:17.122Z,20.61
2018-09-29T13:49:17.054Z,20.68
2018-09-29T13:50:16.989Z,20.31
2018-09-29T13:51:16.921Z,20.79
2018-09-29T13:52:16.855Z,20.98
2018-09-29T13:53:16.788Z,21.30
2018-09-29T13:54:16.722Z,19.75
2018-09-29T13:55:16.655Z,19.69
2018-09-29T13:56:16.590Z,20.18
2018-09-29T13:57:16.522Z,20.34
2018-09-29T13:58:16.455Z,20.30
2018-09-29T14:00:16.326Z,20.10
2018-09-29T14:01:16.256Z,19.72
2018-09-29T14:02:16.210Z,19.21
2018-09-29T14:03:16.121Z,18.99
2018-09-29T14:04:16.057Z,19.45
2018-09-29T14:05:15.987Z,19.20
2018-09-29T14:06:15.922Z,19.27
2018-09-29T14:07:15.851Z,19.55
2018-09-29T14:08:15.786Z,19.57
2018-09-29T14:09:15.718Z,19.21
2018-09-29T14:11:15.606Z,18.32
2018-09-29T14:12:15.513Z,18.21
2018-09-29T14:13:15.444Z,18.21
2018-09-29T14:14:15.374Z,18.35
2018-09-29T14:15:15.306Z,18.07
2018-09-29T14:16:15.336Z,18.67
2018-09-29T14:17:15.166Z,18.86
2018-09-29T14:18:15.096Z,19.11
2018-09-29T14:19:15.027Z,19.17
2018-09-29T14:20:14.958Z,19.55
2018-09-29T14:21:14.889Z,19.95
2018-09-29T14:22:14.817Z,19.98
2018-09-29T14:23:14.747Z,20.24
2018-09-29T14:24:14.678Z,20.00
2018-09-29T14:25:14.610Z,20.51
2018-09-29T14:26:14.538Z,20.64
2018-09-29T14:27:14.469Z,20.65
2018-09-29T14:28:14.401Z,20.98
2018-09-29T14:29:14.331Z,20.56
2018-09-29T14:30:14.334Z,20.65
2018-09-29T14:31:14.193Z,20.91
2018-09-29T14:32:14.126Z,20.94
2018-09-29T14:33:14.061Z,19.95
2018-09-29T14:34:13.987Z,20.06
2018-09-29T14:35:13.919Z,20.19
2018-09-29T14:36:13.950Z,20.34
2018-09-29T14:37:13.783Z,19.53
2018-09-29T14:38:13.714Z,19.54
2018-09-29T14:39:13.645Z,19.45
2018-09-29T14:40:13.579Z,19.36
2018-09-29T14:41:13.508Z,19.24
2018-09-29T14:42:13.440Z,19.28
2018-09-29T14:43:13.371Z,19.38
2018-09-29T14:44:13.302Z,19.80
2018-09-29T14:45:13.289Z,19.83
2018-09-29T14:46:13.166Z,19.93
2018-09-29T14:47:13.198Z,20.05
2018-09-29T14:48:13.029Z,19.72
2018-09-29T14:49:12.959Z,20.27
2018-09-29T14:50:12.894Z,20.57
2018-09-29T14:51:12.826Z,20.18
2018-09-29T14:52:12.762Z,20.01
2018-09-29T14:53:12.687Z,20.46
2018-09-29T14:54:12.617Z,20.57
2018-09-29T14:55:12.550Z,19.88
2018-09-29T14:56:12.482Z,19.53
2018-09-29T14:57:12.413Z,19.14
2018-09-29T14:58:12.343Z,18.98
2018-09-29T14:59:12.275Z,18.64
2018-09-29T15:00:12.207Z,18.50
2018-09-29T15:01:12.138Z,18.42
2018-09-29T15:02:12.069Z,18.21
2018-09-29T15:03:12.000Z,18.11
2018-09-29T15:04:11.950Z,18.22
2018-09-29T15:05:11.862Z,18.19
2018-09-29T15:06:11.792Z,18.22
2018-09-29T15:07:11.723Z,18.18
2018-09-29T15:08:11.655Z,18.21
2018-09-29T15:09:11.583Z,18.25
2018-09-29T15:10:11.549Z,18.02
2018-09-29T15:11:11.442Z,17.73
2018-09-29T15:12:11.372Z,17.67
2018-09-29T15:14:11.230Z,17.33
2018-09-29T15:15:11.159Z,17.30
2018-09-29T15:16:11.091Z,17.25
2018-09-29T15:17:11.022Z,17.26
2018-09-29T15:18:10.996Z,17.30
2018-09-29T15:19:10.880Z,17.25
2018-09-29T15:20:10.805Z,17.21
2018-09-29T15:21:10.739Z,17.32
2018-09-29T15:22:10.663Z,17.26
2018-09-29T15:23:10.595Z,17.10
2018-09-29T15:24:10.521Z,16.89
2018-09-29T15:25:10.451Z,16.80
2018-09-29T15:26:10.468Z,16.70
2018-09-29T15:27:10.307Z,16.75
2018-09-29T15:28:10.235Z,16.82
2018-09-29T15:29:10.165Z,16.81
2018-09-29T15:30:10.094Z,16.82
2018-09-29T15:31:10.023Z,16.77
2018-09-29T15:32:09.952Z,16.67
2018-09-29T15:33:09.880Z,16.63
2018-09-29T15:34:09.808Z,16.60
2018-09-29T15:35:09.737Z,16.56
2018-09-29T15:36:09.664Z,16.50
2018-09-29T15:37:09.635Z,16.41
2018-09-29T15:38:09.519Z,16.35
2018-09-29T15:39:09.453Z,16.47
2018-09-29T15:40:09.376Z,16.38
2018-09-29T15:41:09.306Z,16.35
2018-09-29T15:42:09.232Z,16.27
2018-09-29T15:43:09.160Z,16.33
2018-09-29T15:44:09.103Z,16.30
2018-09-29T15:45:09.092Z,16.30
2018-09-29T15:46:08.943Z,16.35
2018-09-29T15:47:08.872Z,16.30
2018-09-29T15:48:08.802Z,16.34
2018-09-29T15:49:08.730Z,16.25
2018-09-29T15:50:08.658Z,16.01
2018-09-29T15:51:08.582Z,16.10
2018-09-29T15:52:08.510Z,16.10
2018-09-29T15:53:08.439Z,16.20
2018-09-29T15:54:08.365Z,16.10
2018-09-29T15:55:08.324Z,16.08
2018-09-29T15:56:08.225Z,16.08
2018-09-29T15:57:08.155Z,16.14
2018-09-29T15:58:08.083Z,16.16
2018-09-29T15:59:08.004Z,16.08
2018-09-29T16:00:07.932Z,16.06
2018-09-29T16:01:07.860Z,15.79
2018-09-29T16:02:07.828Z,15.81
2018-09-29T16:03:07.715Z,15.75
2018-09-29T16:04:07.640Z,15.78
2018-09-29T16:05:07.569Z,15.66
2018-09-29T16:06:07.496Z,15.68
2018-09-29T16:07:07.424Z,15.70
2018-09-29T16:08:07.378Z,15.68
2018-09-29T16:09:07.296Z,15.71
2018-09-29T16:10:07.207Z,15.71
2018-09-29T16:11:07.133Z,15.52
2018-09-29T16:12:07.060Z,15.41
2018-09-29T16:13:06.988Z,15.26
2018-09-29T16:14:06.916Z,15.21
2018-09-29T16:15:06.844Z,15.16
2018-09-29T16:16:06.770Z,15.16
2018-09-29T16:17:06.699Z,15.10
2018-09-29T16:18:06.624Z,15.13
2018-09-29T16:19:06.552Z,15.13
2018-09-29T16:20:06.480Z,15.23
2018-09-29T16:21:06.406Z,15.10
2018-09-29T16:22:06.333Z,15.12
2018-09-29T16:23:06.259Z,15.13
2018-09-29T16:24:06.187Z,15.20
2018-09-29T16:25:06.114Z,15.18
2018-09-29T16:26:06.040Z,15.13
2018-09-29T16:27:05.969Z,15.02
2018-09-29T16:28:05.895Z,14.85
2018-09-29T16:29:05.822Z,14.80
2018-09-29T16:30:05.746Z,14.50
2018-09-29T16:31:05.675Z,14.46
2018-09-29T16:32:05.697Z,14.57
2018-09-29T16:33:05.530Z,14.74
2018-09-29T16:34:05.455Z,14.75
2018-09-29T16:35:05.383Z,14.74
2018-09-29T16:36:05.352Z,14.59
2018-09-29T16:37:05.236Z,14.50
2018-09-29T16:38:05.163Z,14.50
2018-09-29T16:39:05.089Z,14.47
2018-09-29T16:40:05.015Z,14.34
2018-09-29T16:41:04.942Z,14.38
2018-09-29T16:42:04.868Z,14.31
2018-09-29T16:43:04.794Z,14.24
2018-09-29T16:44:04.721Z,14.11
2018-09-29T16:45:04.649Z,13.94
2018-09-29T16:46:04.573Z,13.94
2018-09-29T16:47:04.501Z,13.89
2018-09-29T16:48:04.427Z,13.80
2018-09-29T16:49:04.354Z,13.65
2018-09-29T16:50:04.279Z,13.50
2018-09-29T16:51:04.205Z,13.44
2018-09-29T16:52:04.132Z,13.19
2018-09-29T16:53:04.060Z,13.10
2018-09-29T16:54:03.985Z,13.04
2018-09-29T16:55:03.911Z,12.85
2018-09-29T16:56:03.839Z,12.73
2018-09-29T16:57:03.764Z,12.48
2018-09-29T16:58:03.688Z,12.37
2018-09-29T16:59:03.617Z,12.19
2018-09-29T17:00:03.542Z,12.02
2018-09-29T17:01:03.467Z,12.02
2018-09-29T17:02:03.391Z,11.83
2018-09-29T17:03:03.318Z,11.74
2018-09-29T17:04:03.356Z,11.57